sensor_id;sensor_type;location;lat;lon;timestamp;temperature;humidity
24146;DHT22;12308;50.948;4.706;2023-04-25T00:00:34;9.80;99.90
24146;DHT22;12308;50.948;4.706;2023-04-25T00:02:59;9.90;99.90
24146;DHT22;12308;50.948;4.706;2023-04-25T00:05:26;10.20;99.90
24146;DHT22;12308;50.948;4.706;2023-04-25T00:07:52;10.10;99.90
24146;DHT22;12308;50.948;4.706;2023-04-25T00:10:19;10.10;99.90
24146;DHT22;12308;50.948;4.706;2023-04-25T00:12:45;10.10;99.90
24146;DHT22;12308;50.948;4.706;2023-04-25T00:15:11;10.10;99.90
24146;DHT22;12308;50.948;4.706;2023-04-25T00:17:37;10.00;99.90
24146;DHT22;12308;50.948;4.706;2023-04-25T00:20:06;10.10;99.90
24146;DHT22;12308;50.948;4.706;2023-04-25T00:22:35;10.20;99.90
24146;DHT22;12308;50.948;4.706;2023-04-25T00:25:05;10.20;99.90
24146;DHT22;12308;50.948;4.706;2023-04-25T00:27:31;10.10;99.90
24146;DHT22;12308;50.948;4.706;2023-04-25T00:29:57;10.10;99.90
24146;DHT22;12308;50.948;4.706;2023-04-25T00:32:23;10.10;99.90
24146;DHT22;12308;50.948;4.706;2023-04-25T00:34:49;10.10;99.90
24146;DHT22;12308;50.948;4.706;2023-04-25T00:37:15;10.10;99.90
24146;DHT22;12308;50.948;4.706;2023-04-25T00:39:41;10.10;99.90
24146;DHT22;12308;50.948;4.706;2023-04-25T00:42:07;10.00;99.90
24146;DHT22;12308;50.948;4.706;2023-04-25T00:44:33;10.20;99.90
24146;DHT22;12308;50.948;4.706;2023-04-25T00:47:01;10.10;99.90
24146;DHT22;12308;50.948;4.706;2023-04-25T00:49:27;10.20;99.90
24146;DHT22;12308;50.948;4.706;2023-04-25T00:51:54;10.20;99.90
24146;DHT22;12308;50.948;4.706;2023-04-25T00:54:20;10.20;99.90
24146;DHT22;12308;50.948;4.706;2023-04-25T00:56:46;10.00;99.90
24146;DHT22;12308;50.948;4.706;2023-04-25T00:59:11;10.10;99.90
24146;DHT22;12308;50.948;4.706;2023-04-25T01:01:39;10.10;99.90
24146;DHT22;12308;50.948;4.706;2023-04-25T01:04:05;10.20;99.90
24146;DHT22;12308;50.948;4.706;2023-04-25T01:06:31;10.10;99.90
24146;DHT22;12308;50.948;4.706;2023-04-25T01:08:57;10.10;99.90
24146;DHT22;12308;50.948;4.706;2023-04-25T01:11:24;10.10;99.90
24146;DHT22;12308;50.948;4.706;2023-04-25T01:13:50;10.10;99.90
24146;DHT22;12308;50.948;4.706;2023-04-25T01:16:16;10.10;99.90
24146;DHT22;12308;50.948;4.706;2023-04-25T01:18:42;10.00;99.90
24146;DHT22;12308;50.948;4.706;2023-04-25T01:21:11;9.90;99.90
24146;DHT22;12308;50.948;4.706;2023-04-25T01:23:42;9.90;99.90
24146;DHT22;12308;50.948;4.706;2023-04-25T01:26:09;9.90;99.90
24146;DHT22;12308;50.948;4.706;2023-04-25T01:28:36;9.80;99.90
24146;DHT22;12308;50.948;4.706;2023-04-25T01:31:02;9.80;99.90
24146;DHT22;12308;50.948;4.706;2023-04-25T01:33:28;10.00;99.90
24146;DHT22;12308;50.948;4.706;2023-04-25T01:35:54;10.10;99.90
24146;DHT22;12308;50.948;4.706;2023-04-25T01:38:20;10.20;99.90
24146;DHT22;12308;50.948;4.706;2023-04-25T01:40:46;10.20;99.90
24146;DHT22;12308;50.948;4.706;2023-04-25T01:43:14;10.20;99.90
24146;DHT22;12308;50.948;4.706;2023-04-25T01:45:43;10.10;99.90
24146;DHT22;12308;50.948;4.706;2023-04-25T01:48:13;10.10;99.90
24146;DHT22;12308;50.948;4.706;2023-04-25T01:50:41;10.30;99.90
24146;DHT22;12308;50.948;4.706;2023-04-25T01:53:09;10.30;99.90
24146;DHT22;12308;50.948;4.706;2023-04-25T01:55:35;10.20;99.90
24146;DHT22;12308;50.948;4.706;2023-04-25T01:58:02;10.00;99.90
24146;DHT22;12308;50.948;4.706;2023-04-25T02:00:29;9.90;99.90
24146;DHT22;12308;50.948;4.706;2023-04-25T02:02:58;9.80;99.90
24146;DHT22;12308;50.948;4.706;2023-04-25T02:05:23;9.70;99.90
24146;DHT22;12308;50.948;4.706;2023-04-25T02:07:49;9.50;99.90
24146;DHT22;12308;50.948;4.706;2023-04-25T02:10:15;9.40;99.90
24146;DHT22;12308;50.948;4.706;2023-04-25T02:12:40;9.40;99.90
24146;DHT22;12308;50.948;4.706;2023-04-25T02:15:06;9.30;99.90
24146;DHT22;12308;50.948;4.706;2023-04-25T02:17:32;9.50;99.90
24146;DHT22;12308;50.948;4.706;2023-04-25T02:19:59;9.60;99.90
24146;DHT22;12308;50.948;4.706;2023-04-25T02:22:25;9.60;99.90
24146;DHT22;12308;50.948;4.706;2023-04-25T02:24:52;9.60;99.90
24146;DHT22;12308;50.948;4.706;2023-04-25T02:27:18;9.50;99.90
24146;DHT22;12308;50.948;4.706;2023-04-25T02:29:44;9.40;99.90
24146;DHT22;12308;50.948;4.706;2023-04-25T02:32:09;9.20;99.90
24146;DHT22;12308;50.948;4.706;2023-04-25T02:34:35;9.30;99.90
24146;DHT22;12308;50.948;4.706;2023-04-25T02:37:01;9.60;99.90
24146;DHT22;12308;50.948;4.706;2023-04-25T02:39:26;9.70;99.90
24146;DHT22;12308;50.948;4.706;2023-04-25T02:41:52;9.60;99.90
24146;DHT22;12308;50.948;4.706;2023-04-25T02:44:18;9.70;99.90
24146;DHT22;12308;50.948;4.706;2023-04-25T02:46:44;9.80;99.90
24146;DHT22;12308;50.948;4.706;2023-04-25T02:49:09;9.90;99.90
24146;DHT22;12308;50.948;4.706;2023-04-25T02:51:35;10.00;99.90
24146;DHT22;12308;50.948;4.706;2023-04-25T02:54:01;9.90;99.90
24146;DHT22;12308;50.948;4.706;2023-04-25T02:56:26;9.80;99.90
24146;DHT22;12308;50.948;4.706;2023-04-25T02:58:53;9.80;99.90
24146;DHT22;12308;50.948;4.706;2023-04-25T03:01:19;9.70;99.90
24146;DHT22;12308;50.948;4.706;2023-04-25T03:03:44;9.50;99.90
24146;DHT22;12308;50.948;4.706;2023-04-25T03:06:10;9.30;99.90
24146;DHT22;12308;50.948;4.706;2023-04-25T03:08:36;9.00;99.90
24146;DHT22;12308;50.948;4.706;2023-04-25T03:11:01;9.00;99.90
24146;DHT22;12308;50.948;4.706;2023-04-25T03:13:27;9.10;99.90
24146;DHT22;12308;50.948;4.706;2023-04-25T03:15:55;9.30;99.90
24146;DHT22;12308;50.948;4.706;2023-04-25T03:18:20;9.20;99.90
24146;DHT22;12308;50.948;4.706;2023-04-25T03:20:46;9.20;99.90
24146;DHT22;12308;50.948;4.706;2023-04-25T03:23:12;9.10;99.90
24146;DHT22;12308;50.948;4.706;2023-04-25T03:25:38;9.00;99.90
24146;DHT22;12308;50.948;4.706;2023-04-25T03:28:03;8.80;99.90
24146;DHT22;12308;50.948;4.706;2023-04-25T03:30:29;8.50;99.90
24146;DHT22;12308;50.948;4.706;2023-04-25T03:32:55;8.20;99.90
24146;DHT22;12308;50.948;4.706;2023-04-25T03:35:20;8.00;99.90
24146;DHT22;12308;50.948;4.706;2023-04-25T03:37:46;7.90;99.90
24146;DHT22;12308;50.948;4.706;2023-04-25T03:40:12;7.80;99.90
24146;DHT22;12308;50.948;4.706;2023-04-25T03:42:37;7.80;99.90
24146;DHT22;12308;50.948;4.706;2023-04-25T03:45:03;7.70;99.90
24146;DHT22;12308;50.948;4.706;2023-04-25T03:47:29;7.70;99.90
24146;DHT22;12308;50.948;4.706;2023-04-25T03:49:55;7.70;99.90
24146;DHT22;12308;50.948;4.706;2023-04-25T03:52:21;7.70;99.90
24146;DHT22;12308;50.948;4.706;2023-04-25T03:54:46;7.70;99.90
24146;DHT22;12308;50.948;4.706;2023-04-25T03:57:12;7.60;99.90
24146;DHT22;12308;50.948;4.706;2023-04-25T03:59:38;7.70;99.90
24146;DHT22;12308;50.948;4.706;2023-04-25T04:02:04;7.70;99.90
24146;DHT22;12308;50.948;4.706;2023-04-25T04:04:29;7.80;99.90
24146;DHT22;12308;50.948;4.706;2023-04-25T04:06:55;7.80;99.90
24146;DHT22;12308;50.948;4.706;2023-04-25T04:09:21;7.90;99.90
24146;DHT22;12308;50.948;4.706;2023-04-25T04:11:47;7.80;99.90
24146;DHT22;12308;50.948;4.706;2023-04-25T04:14:13;7.90;99.90
24146;DHT22;12308;50.948;4.706;2023-04-25T04:16:38;8.00;99.90
24146;DHT22;12308;50.948;4.706;2023-04-25T04:19:04;8.10;99.90
24146;DHT22;12308;50.948;4.706;2023-04-25T04:21:30;8.10;99.90
24146;DHT22;12308;50.948;4.706;2023-04-25T04:23:55;8.10;99.90
24146;DHT22;12308;50.948;4.706;2023-04-25T04:26:23;8.30;99.90
24146;DHT22;12308;50.948;4.706;2023-04-25T04:28:52;8.10;99.90
24146;DHT22;12308;50.948;4.706;2023-04-25T04:31:20;8.20;99.90
24146;DHT22;12308;50.948;4.706;2023-04-25T04:33:47;8.20;99.90
24146;DHT22;12308;50.948;4.706;2023-04-25T04:36:13;8.30;99.90
24146;DHT22;12308;50.948;4.706;2023-04-25T04:38:39;8.30;99.90
24146;DHT22;12308;50.948;4.706;2023-04-25T04:41:06;8.20;99.90
24146;DHT22;12308;50.948;4.706;2023-04-25T04:43:32;8.30;99.90
24146;DHT22;12308;50.948;4.706;2023-04-25T04:46:00;8.40;99.90
24146;DHT22;12308;50.948;4.706;2023-04-25T04:48:26;8.50;99.90
24146;DHT22;12308;50.948;4.706;2023-04-25T04:50:52;8.60;99.90
24146;DHT22;12308;50.948;4.706;2023-04-25T04:53:18;8.40;99.90
24146;DHT22;12308;50.948;4.706;2023-04-25T04:55:44;8.40;99.90
24146;DHT22;12308;50.948;4.706;2023-04-25T04:58:10;8.40;99.90
24146;DHT22;12308;50.948;4.706;2023-04-25T05:00:35;8.50;99.90
24146;DHT22;12308;50.948;4.706;2023-04-25T05:03:01;8.50;99.90
24146;DHT22;12308;50.948;4.706;2023-04-25T05:05:27;8.40;99.90
24146;DHT22;12308;50.948;4.706;2023-04-25T05:07:52;8.30;99.90
24146;DHT22;12308;50.948;4.706;2023-04-25T05:10:19;8.40;99.90
24146;DHT22;12308;50.948;4.706;2023-04-25T05:12:44;8.30;99.90
24146;DHT22;12308;50.948;4.706;2023-04-25T05:15:10;8.30;99.90
24146;DHT22;12308;50.948;4.706;2023-04-25T05:17:36;8.30;99.90
24146;DHT22;12308;50.948;4.706;2023-04-25T05:20:02;8.30;99.90
24146;DHT22;12308;50.948;4.706;2023-04-25T05:22:28;8.40;99.90
24146;DHT22;12308;50.948;4.706;2023-04-25T05:24:53;8.40;99.90
24146;DHT22;12308;50.948;4.706;2023-04-25T05:27:19;8.50;99.90
24146;DHT22;12308;50.948;4.706;2023-04-25T05:29:45;8.50;99.90
24146;DHT22;12308;50.948;4.706;2023-04-25T05:32:11;8.30;99.90
24146;DHT22;12308;50.948;4.706;2023-04-25T05:34:36;8.40;99.90
24146;DHT22;12308;50.948;4.706;2023-04-25T05:37:02;8.40;99.90
24146;DHT22;12308;50.948;4.706;2023-04-25T05:39:28;8.60;99.90
24146;DHT22;12308;50.948;4.706;2023-04-25T05:41:54;8.80;99.90
24146;DHT22;12308;50.948;4.706;2023-04-25T05:44:20;9.00;99.90
24146;DHT22;12308;50.948;4.706;2023-04-25T05:46:46;8.90;99.90
24146;DHT22;12308;50.948;4.706;2023-04-25T05:49:12;8.80;99.90
24146;DHT22;12308;50.948;4.706;2023-04-25T05:51:37;8.70;99.90
24146;DHT22;12308;50.948;4.706;2023-04-25T05:54:03;8.60;99.90
24146;DHT22;12308;50.948;4.706;2023-04-25T05:56:29;8.60;99.90
24146;DHT22;12308;50.948;4.706;2023-04-25T05:58:54;8.60;99.90
24146;DHT22;12308;50.948;4.706;2023-04-25T06:01:21;8.70;99.90
24146;DHT22;12308;50.948;4.706;2023-04-25T06:03:47;8.80;99.90
24146;DHT22;12308;50.948;4.706;2023-04-25T06:06:13;8.90;99.90
24146;DHT22;12308;50.948;4.706;2023-04-25T06:08:39;8.90;99.90
24146;DHT22;12308;50.948;4.706;2023-04-25T06:11:05;8.90;99.90
24146;DHT22;12308;50.948;4.706;2023-04-25T06:13:31;9.10;99.90
24146;DHT22;12308;50.948;4.706;2023-04-25T06:15:57;9.10;99.90
24146;DHT22;12308;50.948;4.706;2023-04-25T06:18:23;9.30;99.90
24146;DHT22;12308;50.948;4.706;2023-04-25T06:20:48;9.20;99.90
24146;DHT22;12308;50.948;4.706;2023-04-25T06:23:14;9.30;99.90
24146;DHT22;12308;50.948;4.706;2023-04-25T06:25:40;9.30;99.90
24146;DHT22;12308;50.948;4.706;2023-04-25T06:28:05;9.50;99.90
24146;DHT22;12308;50.948;4.706;2023-04-25T06:30:31;9.80;99.90
24146;DHT22;12308;50.948;4.706;2023-04-25T06:32:57;9.70;99.90
24146;DHT22;12308;50.948;4.706;2023-04-25T06:35:23;9.80;99.90
24146;DHT22;12308;50.948;4.706;2023-04-25T06:37:48;9.70;99.90
24146;DHT22;12308;50.948;4.706;2023-04-25T06:40:14;9.80;99.90
24146;DHT22;12308;50.948;4.706;2023-04-25T06:42:40;9.80;99.90
24146;DHT22;12308;50.948;4.706;2023-04-25T06:45:06;9.90;99.90
24146;DHT22;12308;50.948;4.706;2023-04-25T06:47:32;10.10;99.90
24146;DHT22;12308;50.948;4.706;2023-04-25T06:49:57;10.30;99.90
24146;DHT22;12308;50.948;4.706;2023-04-25T06:52:23;10.40;99.90
24146;DHT22;12308;50.948;4.706;2023-04-25T06:54:48;10.30;99.90
24146;DHT22;12308;50.948;4.706;2023-04-25T06:57:14;10.50;99.90
24146;DHT22;12308;50.948;4.706;2023-04-25T06:59:40;10.60;99.90
24146;DHT22;12308;50.948;4.706;2023-04-25T07:02:05;10.50;99.90
24146;DHT22;12308;50.948;4.706;2023-04-25T07:04:31;10.60;99.90
24146;DHT22;12308;50.948;4.706;2023-04-25T07:06:57;10.30;99.90
24146;DHT22;12308;50.948;4.706;2023-04-25T07:09:23;10.10;99.90
24146;DHT22;12308;50.948;4.706;2023-04-25T07:11:49;9.80;99.90
24146;DHT22;12308;50.948;4.706;2023-04-25T07:14:14;9.70;99.90
24146;DHT22;12308;50.948;4.706;2023-04-25T07:16:40;9.70;99.90
24146;DHT22;12308;50.948;4.706;2023-04-25T07:19:06;9.90;99.90
24146;DHT22;12308;50.948;4.706;2023-04-25T07:21:31;10.10;99.90
24146;DHT22;12308;50.948;4.706;2023-04-25T07:23:58;10.20;99.90
24146;DHT22;12308;50.948;4.706;2023-04-25T07:26:24;10.30;99.90
24146;DHT22;12308;50.948;4.706;2023-04-25T07:28:50;10.20;99.90
24146;DHT22;12308;50.948;4.706;2023-04-25T07:31:19;10.10;99.90
24146;DHT22;12308;50.948;4.706;2023-04-25T07:33:45;10.10;99.90
24146;DHT22;12308;50.948;4.706;2023-04-25T07:36:11;10.20;99.90
24146;DHT22;12308;50.948;4.706;2023-04-25T07:38:38;10.40;99.90
24146;DHT22;12308;50.948;4.706;2023-04-25T07:41:04;10.50;99.90
24146;DHT22;12308;50.948;4.706;2023-04-25T07:43:30;10.40;99.90
24146;DHT22;12308;50.948;4.706;2023-04-25T07:45:56;10.30;99.90
24146;DHT22;12308;50.948;4.706;2023-04-25T07:48:22;10.20;99.90
24146;DHT22;12308;50.948;4.706;2023-04-25T07:50:48;10.00;99.90
24146;DHT22;12308;50.948;4.706;2023-04-25T07:53:14;9.70;99.90
24146;DHT22;12308;50.948;4.706;2023-04-25T07:55:40;9.60;99.90
24146;DHT22;12308;50.948;4.706;2023-04-25T07:58:09;9.70;99.90
24146;DHT22;12308;50.948;4.706;2023-04-25T08:00:36;9.60;99.90
24146;DHT22;12308;50.948;4.706;2023-04-25T08:03:02;9.60;99.90
24146;DHT22;12308;50.948;4.706;2023-04-25T08:05:28;9.50;99.90
24146;DHT22;12308;50.948;4.706;2023-04-25T08:07:54;9.30;99.90
24146;DHT22;12308;50.948;4.706;2023-04-25T08:10:20;9.30;99.90
24146;DHT22;12308;50.948;4.706;2023-04-25T08:12:48;9.40;99.90
24146;DHT22;12308;50.948;4.706;2023-04-25T08:15:14;9.40;99.90
24146;DHT22;12308;50.948;4.706;2023-04-25T08:17:40;9.60;99.90
24146;DHT22;12308;50.948;4.706;2023-04-25T08:20:06;9.60;99.90
24146;DHT22;12308;50.948;4.706;2023-04-25T08:22:32;9.80;99.90
24146;DHT22;12308;50.948;4.706;2023-04-25T08:24:59;9.80;99.90
24146;DHT22;12308;50.948;4.706;2023-04-25T08:27:25;9.90;99.90
24146;DHT22;12308;50.948;4.706;2023-04-25T08:29:50;9.90;99.90
24146;DHT22;12308;50.948;4.706;2023-04-25T08:32:16;10.00;99.90
24146;DHT22;12308;50.948;4.706;2023-04-25T08:34:42;10.10;99.90
24146;DHT22;12308;50.948;4.706;2023-04-25T08:37:10;10.10;99.90
24146;DHT22;12308;50.948;4.706;2023-04-25T08:39:36;10.30;99.90
24146;DHT22;12308;50.948;4.706;2023-04-25T08:42:06;10.60;99.90
24146;DHT22;12308;50.948;4.706;2023-04-25T08:44:36;10.80;99.90
24146;DHT22;12308;50.948;4.706;2023-04-25T08:47:03;11.00;99.90
24146;DHT22;12308;50.948;4.706;2023-04-25T08:49:32;11.10;99.90
24146;DHT22;12308;50.948;4.706;2023-04-25T08:52:00;10.80;99.90
24146;DHT22;12308;50.948;4.706;2023-04-25T08:54:27;10.70;99.90
24146;DHT22;12308;50.948;4.706;2023-04-25T08:56:54;10.60;99.90
24146;DHT22;12308;50.948;4.706;2023-04-25T08:59:22;10.80;99.90
24146;DHT22;12308;50.948;4.706;2023-04-25T09:01:49;11.10;99.90
24146;DHT22;12308;50.948;4.706;2023-04-25T09:04:15;11.20;99.90
24146;DHT22;12308;50.948;4.706;2023-04-25T09:06:41;11.50;99.90
24146;DHT22;12308;50.948;4.706;2023-04-25T09:09:08;11.30;99.90
24146;DHT22;12308;50.948;4.706;2023-04-25T09:11:35;11.20;99.90
24146;DHT22;12308;50.948;4.706;2023-04-25T09:19:23;11.20;99.90
24146;DHT22;12308;50.948;4.706;2023-04-25T09:22:00;11.30;99.90
24146;DHT22;12308;50.948;4.706;2023-04-25T09:24:40;10.90;99.90
24146;DHT22;12308;50.948;4.706;2023-04-25T09:27:09;10.50;99.90
24146;DHT22;12308;50.948;4.706;2023-04-25T09:29:39;10.20;99.90
24146;DHT22;12308;50.948;4.706;2023-04-25T09:32:16;10.10;99.90
24146;DHT22;12308;50.948;4.706;2023-04-25T09:34:50;10.30;99.90
24146;DHT22;12308;50.948;4.706;2023-04-25T09:37:24;10.20;99.90
24146;DHT22;12308;50.948;4.706;2023-04-25T09:39:58;10.00;99.90
24146;DHT22;12308;50.948;4.706;2023-04-25T09:42:31;9.70;99.90
24146;DHT22;12308;50.948;4.706;2023-04-25T09:44:58;9.50;99.90
24146;DHT22;12308;50.948;4.706;2023-04-25T09:47:26;9.40;99.90
24146;DHT22;12308;50.948;4.706;2023-04-25T09:49:53;9.50;99.90
24146;DHT22;12308;50.948;4.706;2023-04-25T09:52:25;9.60;99.90
24146;DHT22;12308;50.948;4.706;2023-04-25T09:54:51;9.70;99.90
24146;DHT22;12308;50.948;4.706;2023-04-25T09:57:22;9.70;99.90
24146;DHT22;12308;50.948;4.706;2023-04-25T09:59:55;9.90;99.90
24146;DHT22;12308;50.948;4.706;2023-04-25T10:02:23;10.10;99.90
24146;DHT22;12308;50.948;4.706;2023-04-25T10:04:51;10.20;99.90
24146;DHT22;12308;50.948;4.706;2023-04-25T10:07:19;10.30;99.90
24146;DHT22;12308;50.948;4.706;2023-04-25T10:09:48;10.50;99.90
24146;DHT22;12308;50.948;4.706;2023-04-25T10:12:16;10.90;99.90
24146;DHT22;12308;50.948;4.706;2023-04-25T10:14:42;11.20;99.90
24146;DHT22;12308;50.948;4.706;2023-04-25T10:17:10;11.30;99.90
24146;DHT22;12308;50.948;4.706;2023-04-25T10:19:37;11.20;99.90
24146;DHT22;12308;50.948;4.706;2023-04-25T10:22:14;11.30;99.90
24146;DHT22;12308;50.948;4.706;2023-04-25T10:24:42;11.40;99.90
24146;DHT22;12308;50.948;4.706;2023-04-25T10:27:09;11.20;99.90
24146;DHT22;12308;50.948;4.706;2023-04-25T10:29:35;11.30;99.90
24146;DHT22;12308;50.948;4.706;2023-04-25T10:32:00;11.30;99.90
24146;DHT22;12308;50.948;4.706;2023-04-25T10:34:41;11.30;99.90
24146;DHT22;12308;50.948;4.706;2023-04-25T10:37:11;11.20;99.90
24146;DHT22;12308;50.948;4.706;2023-04-25T10:39:40;11.30;99.90
24146;DHT22;12308;50.948;4.706;2023-04-25T10:42:07;11.60;99.90
24146;DHT22;12308;50.948;4.706;2023-04-25T10:44:37;11.50;99.90
24146;DHT22;12308;50.948;4.706;2023-04-25T10:47:03;11.50;99.90
24146;DHT22;12308;50.948;4.706;2023-04-25T10:49:32;11.70;99.90
24146;DHT22;12308;50.948;4.706;2023-04-25T10:52:38;12.20;99.90
24146;DHT22;12308;50.948;4.706;2023-04-25T10:55:04;12.60;99.90
24146;DHT22;12308;50.948;4.706;2023-04-25T10:57:44;12.50;99.90
24146;DHT22;12308;50.948;4.706;2023-04-25T11:00:19;12.10;99.90
24146;DHT22;12308;50.948;4.706;2023-04-25T11:02:51;12.10;99.90
24146;DHT22;12308;50.948;4.706;2023-04-25T11:07:52;11.80;99.90
24146;DHT22;12308;50.948;4.706;2023-04-25T11:10:18;11.70;99.90
24146;DHT22;12308;50.948;4.706;2023-04-25T11:12:45;11.90;99.90
24146;DHT22;12308;50.948;4.706;2023-04-25T11:15:11;12.00;99.90
24146;DHT22;12308;50.948;4.706;2023-04-25T11:17:38;12.10;99.90
24146;DHT22;12308;50.948;4.706;2023-04-25T11:20:07;12.10;99.90
24146;DHT22;12308;50.948;4.706;2023-04-25T11:22:38;12.00;99.90
24146;DHT22;12308;50.948;4.706;2023-04-25T11:25:10;11.90;99.90
24146;DHT22;12308;50.948;4.706;2023-04-25T11:27:56;12.00;99.90
24146;DHT22;12308;50.948;4.706;2023-04-25T11:30:23;12.30;99.90
24146;DHT22;12308;50.948;4.706;2023-04-25T11:32:49;12.20;99.90
24146;DHT22;12308;50.948;4.706;2023-04-25T11:35:15;12.30;99.90
24146;DHT22;12308;50.948;4.706;2023-04-25T11:37:42;12.30;99.90
24146;DHT22;12308;50.948;4.706;2023-04-25T11:40:09;12.40;99.90
24146;DHT22;12308;50.948;4.706;2023-04-25T11:42:41;12.20;99.90
24146;DHT22;12308;50.948;4.706;2023-04-25T11:45:08;11.80;99.90
24146;DHT22;12308;50.948;4.706;2023-04-25T11:47:35;11.30;99.90
24146;DHT22;12308;50.948;4.706;2023-04-25T11:50:06;11.10;99.90
24146;DHT22;12308;50.948;4.706;2023-04-25T11:52:40;11.00;99.90
24146;DHT22;12308;50.948;4.706;2023-04-25T11:55:10;11.00;99.90
24146;DHT22;12308;50.948;4.706;2023-04-25T11:57:38;11.10;99.90
24146;DHT22;12308;50.948;4.706;2023-04-25T12:02:37;11.30;99.90
24146;DHT22;12308;50.948;4.706;2023-04-25T12:05:06;11.40;99.90
24146;DHT22;12308;50.948;4.706;2023-04-25T12:07:34;11.70;99.90
24146;DHT22;12308;50.948;4.706;2023-04-25T12:10:07;12.00;99.90
24146;DHT22;12308;50.948;4.706;2023-04-25T12:12:34;12.00;99.90
24146;DHT22;12308;50.948;4.706;2023-04-25T12:17:38;11.60;99.90
24146;DHT22;12308;50.948;4.706;2023-04-25T12:20:16;11.70;99.90
24146;DHT22;12308;50.948;4.706;2023-04-25T12:22:47;11.90;99.90
24146;DHT22;12308;50.948;4.706;2023-04-25T12:25:13;12.10;99.90
24146;DHT22;12308;50.948;4.706;2023-04-25T12:28:18;12.20;99.90
24146;DHT22;12308;50.948;4.706;2023-04-25T12:33:36;12.30;99.90
24146;DHT22;12308;50.948;4.706;2023-04-25T12:36:03;12.10;99.90
24146;DHT22;12308;50.948;4.706;2023-04-25T12:38:40;12.10;99.90
24146;DHT22;12308;50.948;4.706;2023-04-25T12:41:07;12.40;99.90
24146;DHT22;12308;50.948;4.706;2023-04-25T12:43:33;12.80;99.90
24146;DHT22;12308;50.948;4.706;2023-04-25T12:45:58;13.00;99.90
24146;DHT22;12308;50.948;4.706;2023-04-25T12:48:24;12.90;99.90
24146;DHT22;12308;50.948;4.706;2023-04-25T12:50:50;12.50;99.90
24146;DHT22;12308;50.948;4.706;2023-04-25T12:53:21;12.10;99.90
24146;DHT22;12308;50.948;4.706;2023-04-25T12:55:47;12.00;99.90
24146;DHT22;12308;50.948;4.706;2023-04-25T12:58:14;12.00;99.90
24146;DHT22;12308;50.948;4.706;2023-04-25T13:00:39;12.00;99.90
24146;DHT22;12308;50.948;4.706;2023-04-25T13:03:05;11.90;99.90
24146;DHT22;12308;50.948;4.706;2023-04-25T13:05:31;11.80;99.90
24146;DHT22;12308;50.948;4.706;2023-04-25T13:07:57;11.70;99.90
24146;DHT22;12308;50.948;4.706;2023-04-25T13:10:23;11.40;99.90
24146;DHT22;12308;50.948;4.706;2023-04-25T13:12:48;11.20;99.90
24146;DHT22;12308;50.948;4.706;2023-04-25T13:15:14;11.20;99.90
24146;DHT22;12308;50.948;4.706;2023-04-25T13:17:41;11.50;99.90
24146;DHT22;12308;50.948;4.706;2023-04-25T13:20:07;11.60;99.90
24146;DHT22;12308;50.948;4.706;2023-04-25T13:22:36;11.80;99.90
24146;DHT22;12308;50.948;4.706;2023-04-25T13:25:03;11.80;99.90
24146;DHT22;12308;50.948;4.706;2023-04-25T13:27:28;11.90;99.90
24146;DHT22;12308;50.948;4.706;2023-04-25T13:29:55;11.80;99.90
24146;DHT22;12308;50.948;4.706;2023-04-25T13:32:21;11.80;99.90
24146;DHT22;12308;50.948;4.706;2023-04-25T13:34:47;11.90;99.90
24146;DHT22;12308;50.948;4.706;2023-04-25T13:37:12;11.80;99.90
24146;DHT22;12308;50.948;4.706;2023-04-25T13:39:38;11.90;99.90
24146;DHT22;12308;50.948;4.706;2023-04-25T13:42:04;11.90;99.90
24146;DHT22;12308;50.948;4.706;2023-04-25T13:44:29;12.00;99.90
24146;DHT22;12308;50.948;4.706;2023-04-25T13:46:55;12.10;99.90
24146;DHT22;12308;50.948;4.706;2023-04-25T13:49:21;11.90;99.90
24146;DHT22;12308;50.948;4.706;2023-04-25T13:51:48;11.60;99.90
24146;DHT22;12308;50.948;4.706;2023-04-25T13:54:14;11.40;99.90
24146;DHT22;12308;50.948;4.706;2023-04-25T13:56:40;11.30;99.90
24146;DHT22;12308;50.948;4.706;2023-04-25T13:59:07;11.40;99.90
24146;DHT22;12308;50.948;4.706;2023-04-25T14:01:33;11.30;99.90
24146;DHT22;12308;50.948;4.706;2023-04-25T14:04:01;11.50;99.90
24146;DHT22;12308;50.948;4.706;2023-04-25T14:06:29;11.80;99.90
24146;DHT22;12308;50.948;4.706;2023-04-25T14:08:56;12.20;99.90
24146;DHT22;12308;50.948;4.706;2023-04-25T14:11:22;12.60;99.90
24146;DHT22;12308;50.948;4.706;2023-04-25T14:13:47;12.70;99.90
24146;DHT22;12308;50.948;4.706;2023-04-25T14:16:15;12.60;99.90
24146;DHT22;12308;50.948;4.706;2023-04-25T14:18:41;12.20;99.90
24146;DHT22;12308;50.948;4.706;2023-04-25T14:21:07;11.50;99.90
24146;DHT22;12308;50.948;4.706;2023-04-25T14:23:32;11.20;99.90
24146;DHT22;12308;50.948;4.706;2023-04-25T14:25:58;11.20;99.90
24146;DHT22;12308;50.948;4.706;2023-04-25T14:28:24;11.20;99.90
24146;DHT22;12308;50.948;4.706;2023-04-25T14:30:49;11.30;99.90
24146;DHT22;12308;50.948;4.706;2023-04-25T14:33:15;11.60;99.90
24146;DHT22;12308;50.948;4.706;2023-04-25T14:35:41;11.70;99.90
24146;DHT22;12308;50.948;4.706;2023-04-25T14:38:07;11.90;99.90
24146;DHT22;12308;50.948;4.706;2023-04-25T14:40:33;12.00;99.90
24146;DHT22;12308;50.948;4.706;2023-04-25T14:42:59;12.20;99.90
24146;DHT22;12308;50.948;4.706;2023-04-25T14:45:25;12.40;99.90
24146;DHT22;12308;50.948;4.706;2023-04-25T14:47:51;12.50;99.90
24146;DHT22;12308;50.948;4.706;2023-04-25T14:50:17;12.40;99.90
24146;DHT22;12308;50.948;4.706;2023-04-25T14:52:43;12.00;99.90
24146;DHT22;12308;50.948;4.706;2023-04-25T14:55:10;11.60;99.90
24146;DHT22;12308;50.948;4.706;2023-04-25T14:57:36;11.60;99.90
24146;DHT22;12308;50.948;4.706;2023-04-25T15:00:03;11.50;99.90
24146;DHT22;12308;50.948;4.706;2023-04-25T15:02:32;11.50;99.90
24146;DHT22;12308;50.948;4.706;2023-04-25T15:04:58;11.70;99.90
24146;DHT22;12308;50.948;4.706;2023-04-25T15:07:24;11.70;99.90
24146;DHT22;12308;50.948;4.706;2023-04-25T15:09:50;11.80;99.90
24146;DHT22;12308;50.948;4.706;2023-04-25T15:12:15;11.90;99.90
24146;DHT22;12308;50.948;4.706;2023-04-25T15:14:41;12.00;99.90
24146;DHT22;12308;50.948;4.706;2023-04-25T15:17:07;12.10;99.90
24146;DHT22;12308;50.948;4.706;2023-04-25T15:19:32;12.10;99.90
24146;DHT22;12308;50.948;4.706;2023-04-25T15:21:58;12.00;99.90
24146;DHT22;12308;50.948;4.706;2023-04-25T15:24:26;11.90;99.90
24146;DHT22;12308;50.948;4.706;2023-04-25T15:26:52;11.90;99.90
24146;DHT22;12308;50.948;4.706;2023-04-25T15:29:18;11.90;99.90
24146;DHT22;12308;50.948;4.706;2023-04-25T15:31:44;12.00;99.90
24146;DHT22;12308;50.948;4.706;2023-04-25T15:34:10;11.90;99.90
24146;DHT22;12308;50.948;4.706;2023-04-25T15:36:36;11.80;99.90
24146;DHT22;12308;50.948;4.706;2023-04-25T15:39:02;11.80;99.90
24146;DHT22;12308;50.948;4.706;2023-04-25T15:41:28;11.80;99.90
24146;DHT22;12308;50.948;4.706;2023-04-25T15:43:54;11.70;99.90
24146;DHT22;12308;50.948;4.706;2023-04-25T15:46:20;11.70;99.90
24146;DHT22;12308;50.948;4.706;2023-04-25T15:48:47;11.70;99.90
24146;DHT22;12308;50.948;4.706;2023-04-25T15:51:13;11.70;99.90